createdAt,value
2017-08-23T00:00:52.878Z,15.47
2017-08-23T00:03:20.374Z,13.27
2017-08-23T00:05:47.839Z,12.67
2017-08-23T00:08:15.325Z,16.83
2017-08-23T00:10:42.819Z,17.83
2017-08-23T00:13:10.279Z,13.90
2017-08-23T00:15:37.765Z,12.60
2017-08-23T00:18:05.241Z,14.87
2017-08-23T00:20:32.741Z,18.83
2017-08-23T00:23:00.229Z,15.80
2017-08-23T00:25:27.711Z,15.23
2017-08-23T00:27:55.212Z,12.20
2017-08-23T00:30:22.662Z,13.13
2017-08-23T00:32:50.136Z,10.13
2017-08-23T00:35:17.601Z,10.40
2017-08-23T00:37:45.071Z,11.20
2017-08-23T00:40:12.530Z,13.20
2017-08-23T00:42:40.194Z,10.83
2017-08-23T00:45:07.659Z,11.10
2017-08-23T00:47:35.118Z,15.23
2017-08-23T00:50:02.720Z,10.37
2017-08-23T00:52:30.305Z,11.47
2017-08-23T00:54:57.778Z,11.70
2017-08-23T00:57:25.237Z,9.93
2017-08-23T00:59:52.734Z,10.80
2017-08-23T01:04:54.293Z,11.83
2017-08-23T01:07:21.775Z,14.10
2017-08-23T01:09:49.233Z,14.40
2017-08-23T01:12:16.848Z,11.67
2017-08-23T01:14:44.333Z,10.07
2017-08-23T01:17:11.796Z,10.77
2017-08-23T01:19:39.262Z,8.60
2017-08-23T01:22:06.793Z,9.50
2017-08-23T01:24:34.277Z,9.07
2017-08-23T01:27:01.829Z,12.13
2017-08-23T01:29:29.314Z,10.17
2017-08-23T01:31:56.790Z,8.77
2017-08-23T01:34:24.432Z,8.87
2017-08-23T01:36:51.909Z,16.73
2017-08-23T01:39:19.390Z,9.33
2017-08-23T01:41:46.853Z,14.97
2017-08-23T01:44:14.329Z,11.90
2017-08-23T01:46:41.981Z,10.93
2017-08-23T01:49:09.461Z,9.40
2017-08-23T01:51:37.080Z,11.90
2017-08-23T01:54:04.592Z,9.87
2017-08-23T01:56:32.049Z,9.43
2017-08-23T01:58:59.526Z,11.40
2017-08-23T02:01:26.993Z,10.80
2017-08-23T02:03:54.492Z,13.40
2017-08-23T02:06:21.995Z,13.77
2017-08-23T02:08:49.465Z,13.20
2017-08-23T02:11:16.962Z,13.97
2017-08-23T02:13:44.573Z,12.43
2017-08-23T02:16:12.069Z,10.90
2017-08-23T02:18:39.561Z,10.30
2017-08-23T02:21:07.036Z,19.00
2017-08-23T02:23:34.532Z,11.20
2017-08-23T02:26:02.166Z,9.60
2017-08-23T02:28:29.646Z,14.70
2017-08-23T02:30:57.109Z,10.33
2017-08-23T02:33:24.590Z,16.63
2017-08-23T02:35:52.090Z,9.10
2017-08-23T02:38:19.543Z,17.13
2017-08-23T02:40:47.129Z,13.40
2017-08-23T02:43:14.593Z,8.77
2017-08-23T02:45:42.066Z,12.00
2017-08-23T02:48:09.545Z,11.00
2017-08-23T02:50:37.025Z,12.30
2017-08-23T02:53:04.486Z,11.30
2017-08-23T02:55:32.089Z,12.43
2017-08-23T02:57:59.576Z,13.60
2017-08-23T03:00:27.042Z,9.10
2017-08-23T03:02:54.518Z,10.43
2017-08-23T03:05:21.992Z,10.03
2017-08-23T03:07:49.472Z,9.57
2017-08-23T03:10:16.939Z,8.73
2017-08-23T03:12:44.417Z,12.83
2017-08-23T03:15:11.896Z,19.27
2017-08-23T03:17:39.843Z,10.20
2017-08-23T03:20:07.352Z,11.50
2017-08-23T03:22:34.824Z,8.10
2017-08-23T03:25:02.312Z,14.73
2017-08-23T03:27:29.881Z,20.13
2017-08-23T03:29:57.366Z,9.60
2017-08-23T03:32:24.920Z,13.47
2017-08-23T03:34:52.400Z,12.00
2017-08-23T03:37:19.879Z,13.20
2017-08-23T03:39:47.437Z,9.77
2017-08-23T03:42:14.949Z,9.93
2017-08-23T03:44:42.460Z,10.23
2017-08-23T03:47:09.926Z,9.77
2017-08-23T03:49:37.394Z,8.60
2017-08-23T03:52:04.870Z,9.67
2017-08-23T03:54:32.394Z,8.10
2017-08-23T03:57:00.005Z,10.57
2017-08-23T03:59:27.468Z,8.27
2017-08-23T04:01:54.943Z,8.70
2017-08-23T04:04:22.462Z,11.73
2017-08-23T04:06:50.129Z,9.50
2017-08-23T04:09:17.596Z,20.83
2017-08-23T04:11:45.146Z,9.90
2017-08-23T04:14:12.631Z,7.33
2017-08-23T04:16:40.163Z,12.43
2017-08-23T04:19:07.613Z,9.67
2017-08-23T04:21:35.089Z,7.13
2017-08-23T04:24:02.723Z,9.83
2017-08-23T04:26:30.225Z,12.13
2017-08-23T04:28:57.689Z,10.63
2017-08-23T04:31:25.226Z,14.40
2017-08-23T04:33:52.687Z,14.60
2017-08-23T04:36:24.004Z,10.40
2017-08-23T04:38:51.475Z,10.00
2017-08-23T04:41:18.929Z,8.10
2017-08-23T04:43:46.403Z,10.87
2017-08-23T04:46:14.357Z,11.10
2017-08-23T04:48:41.835Z,7.50
2017-08-23T04:51:09.306Z,16.10
2017-08-23T04:53:36.778Z,11.20
2017-08-23T04:56:04.417Z,10.63
2017-08-23T04:58:31.895Z,8.97
2017-08-23T05:01:00.134Z,10.83
2017-08-23T05:03:27.592Z,9.70
2017-08-23T05:05:55.075Z,10.67
2017-08-23T05:08:22.550Z,11.03
2017-08-23T05:10:50.034Z,8.73
2017-08-23T05:13:17.504Z,8.83
2017-08-23T05:15:44.969Z,11.23
2017-08-23T05:18:12.448Z,10.30
2017-08-23T05:20:40.694Z,7.67
2017-08-23T05:23:08.217Z,6.87
2017-08-23T05:25:35.692Z,6.80
2017-08-23T05:28:03.170Z,9.03
2017-08-23T05:30:30.673Z,11.50
2017-08-23T05:32:58.162Z,7.67
2017-08-23T05:35:25.629Z,8.60
2017-08-23T05:37:53.092Z,9.80
2017-08-23T05:40:20.569Z,9.57
2017-08-23T05:42:48.038Z,8.77
2017-08-23T05:45:15.504Z,6.70
2017-08-23T05:47:42.965Z,7.10
2017-08-23T05:50:10.428Z,7.20
2017-08-23T05:52:37.917Z,7.40
2017-08-23T05:55:05.613Z,8.43
2017-08-23T05:57:33.088Z,11.43
2017-08-23T06:00:00.555Z,7.20
2017-08-23T06:02:28.151Z,9.30
2017-08-23T06:04:55.621Z,16.43
2017-08-23T06:07:23.102Z,11.23
2017-08-23T06:09:50.573Z,6.20
2017-08-23T06:12:18.053Z,15.13
2017-08-23T06:14:45.522Z,10.90
2017-08-23T06:17:13.001Z,17.00
2017-08-23T06:19:40.486Z,11.00
2017-08-23T06:22:07.950Z,10.30
2017-08-23T06:24:35.424Z,8.93
2017-08-23T06:27:02.900Z,15.03
2017-08-23T06:29:30.421Z,8.70
2017-08-23T06:31:57.881Z,6.40
2017-08-23T06:34:25.348Z,7.37
2017-08-23T06:36:52.854Z,9.83
2017-08-23T06:39:20.536Z,11.03
2017-08-23T06:41:47.997Z,6.70
2017-08-23T06:44:15.463Z,7.67
2017-08-23T06:46:42.947Z,6.00
2017-08-23T06:49:11.202Z,12.10
2017-08-23T06:51:38.871Z,10.60
2017-08-23T06:54:06.326Z,12.83
2017-08-23T06:56:33.783Z,9.80
2017-08-23T06:59:01.261Z,9.07
2017-08-23T07:01:28.739Z,11.83
2017-08-23T07:03:56.205Z,7.10
2017-08-23T07:06:23.663Z,7.67
2017-08-23T07:08:51.141Z,13.93
2017-08-23T07:11:18.622Z,10.90
2017-08-23T07:13:46.257Z,12.43
2017-08-23T07:16:13.719Z,8.80
2017-08-23T07:18:41.193Z,8.23
2017-08-23T07:21:08.667Z,15.30
2017-08-23T07:23:36.192Z,9.07
2017-08-23T07:26:03.726Z,10.77
2017-08-23T07:28:31.201Z,10.67
2017-08-23T07:30:58.696Z,14.33
2017-08-23T07:33:26.394Z,7.83
2017-08-23T07:35:53.907Z,15.50
2017-08-23T07:38:21.376Z,8.70
2017-08-23T07:40:48.844Z,9.17
2017-08-23T07:43:16.342Z,8.47
2017-08-23T07:45:43.798Z,8.50
2017-08-23T07:48:11.258Z,10.47
2017-08-23T07:50:38.806Z,15.13
2017-08-23T07:53:06.530Z,7.17
2017-08-23T07:55:34.130Z,11.83
2017-08-23T07:58:01.585Z,6.90
2017-08-23T08:00:29.070Z,8.10
2017-08-23T08:02:56.539Z,5.87
2017-08-23T08:05:24.006Z,11.90
2017-08-23T08:07:51.475Z,10.47
2017-08-23T08:10:19.652Z,8.20
2017-08-23T08:12:47.229Z,5.03
2017-08-23T08:15:14.706Z,4.83
2017-08-23T08:17:42.198Z,10.33
2017-08-23T08:20:10.462Z,7.87
2017-08-23T08:22:37.942Z,10.40
2017-08-23T08:25:05.484Z,9.20
2017-08-23T08:27:32.961Z,13.10
2017-08-23T08:30:00.432Z,11.00
2017-08-23T08:32:27.911Z,9.57
2017-08-23T08:34:55.370Z,6.20
2017-08-23T08:37:23.544Z,11.63
2017-08-23T08:39:51.029Z,5.40
2017-08-23T08:42:18.513Z,13.00
2017-08-23T08:44:45.983Z,9.40
2017-08-23T08:47:13.437Z,7.07
2017-08-23T08:49:40.922Z,8.60
2017-08-23T08:52:08.401Z,8.50
2017-08-23T08:54:35.898Z,9.20
2017-08-23T08:57:03.357Z,9.97
2017-08-23T08:59:30.815Z,7.13
2017-08-23T09:01:58.280Z,7.33
2017-08-23T09:04:25.738Z,5.23
2017-08-23T09:06:53.218Z,8.60
2017-08-23T09:09:20.670Z,7.63
2017-08-23T09:11:48.153Z,9.63
2017-08-23T09:14:15.613Z,5.30
2017-08-23T09:16:43.100Z,6.17
2017-08-23T09:19:10.748Z,7.27
2017-08-23T09:21:38.205Z,8.37
2017-08-23T09:24:05.692Z,9.47
2017-08-23T09:26:33.998Z,9.77
2017-08-23T09:29:01.474Z,9.63
2017-08-23T09:31:29.049Z,11.60
2017-08-23T09:33:56.497Z,5.87
2017-08-23T09:36:23.965Z,8.37
2017-08-23T09:38:51.589Z,16.20
2017-08-23T09:41:19.061Z,7.17
2017-08-23T09:43:46.526Z,8.83
2017-08-23T09:46:14.021Z,9.87
2017-08-23T09:48:41.489Z,8.13
2017-08-23T09:51:09.720Z,6.30
2017-08-23T09:53:37.202Z,9.13
2017-08-23T09:56:04.713Z,7.07
2017-08-23T09:58:32.256Z,6.57
2017-08-23T10:00:59.767Z,10.80
2017-08-23T10:03:27.218Z,6.73
2017-08-23T10:05:54.693Z,8.83
2017-08-23T10:08:22.265Z,13.00
2017-08-23T10:10:49.743Z,6.20
2017-08-23T10:13:17.210Z,10.23
2017-08-23T10:15:44.845Z,12.70
2017-08-23T10:18:12.333Z,17.40
2017-08-23T10:20:39.799Z,5.50
2017-08-23T10:23:08.327Z,7.20
2017-08-23T10:25:35.790Z,7.57
2017-08-23T10:28:03.250Z,15.63
2017-08-23T10:30:30.732Z,7.57
2017-08-23T10:32:58.836Z,8.10
2017-08-23T10:35:26.304Z,10.33
2017-08-23T10:37:53.776Z,7.50
2017-08-23T10:40:21.362Z,6.17
2017-08-23T10:42:48.845Z,12.90
2017-08-23T10:45:16.317Z,8.07
2017-08-23T10:47:43.791Z,10.67
2017-08-23T10:50:11.261Z,6.57
2017-08-23T10:52:38.747Z,6.83
2017-08-23T10:55:06.228Z,5.90
2017-08-23T10:57:33.693Z,3.80
2017-08-23T11:00:01.273Z,12.30
2017-08-23T11:02:28.955Z,10.13
2017-08-23T11:04:57.181Z,6.03
2017-08-23T11:07:24.649Z,4.90
2017-08-23T11:09:52.108Z,6.33
2017-08-23T11:12:19.580Z,6.53
2017-08-23T11:14:47.123Z,13.03
2017-08-23T11:17:14.573Z,4.77
2017-08-23T11:19:42.048Z,6.13
2017-08-23T11:22:09.513Z,9.03
2017-08-23T11:24:36.992Z,9.63
2017-08-23T11:27:04.457Z,5.33
2017-08-23T11:29:31.957Z,11.30
2017-08-23T11:31:59.458Z,7.63
2017-08-23T11:34:26.924Z,8.50
2017-08-23T11:36:54.688Z,8.57
2017-08-23T11:39:22.199Z,9.83
2017-08-23T11:41:49.677Z,10.13
2017-08-23T11:44:17.159Z,13.43
2017-08-23T11:46:44.639Z,9.50
2017-08-23T11:49:12.102Z,7.77
2017-08-23T11:51:39.587Z,4.87
2017-08-23T11:54:07.050Z,7.50
2017-08-23T11:56:34.733Z,7.43
2017-08-23T11:59:02.207Z,8.53
2017-08-23T12:01:29.731Z,9.40
2017-08-23T12:03:57.220Z,8.20
2017-08-23T12:06:24.804Z,10.90
2017-08-23T12:08:52.269Z,7.60
2017-08-23T12:11:19.744Z,10.27
2017-08-23T12:13:47.225Z,8.80
2017-08-23T12:16:14.780Z,3.47
2017-08-23T12:18:42.265Z,10.37
2017-08-23T12:21:09.778Z,4.40
2017-08-23T12:23:37.324Z,5.10
2017-08-23T12:26:04.877Z,4.50
2017-08-23T12:28:32.371Z,10.50
2017-08-23T12:30:59.841Z,6.30
2017-08-23T12:33:27.328Z,6.87
2017-08-23T12:35:54.838Z,4.63
2017-08-23T12:38:23.412Z,4.00
2017-08-23T12:40:50.880Z,8.63
2017-08-23T12:43:18.347Z,10.20
2017-08-23T12:45:45.825Z,9.00
2017-08-23T12:48:13.897Z,8.03
2017-08-23T12:50:41.354Z,5.53
2017-08-23T12:53:08.841Z,4.70
2017-08-23T12:55:36.296Z,7.80
2017-08-23T12:58:03.929Z,6.27
2017-08-23T13:00:31.398Z,8.47
2017-08-23T13:02:58.870Z,11.47
2017-08-23T13:05:26.349Z,6.80
2017-08-23T13:07:53.825Z,4.40
2017-08-23T13:10:21.314Z,5.10
2017-08-23T13:12:48.899Z,4.23
2017-08-23T13:15:16.352Z,6.93
2017-08-23T13:17:43.839Z,8.03
2017-08-23T13:20:11.362Z,6.90
2017-08-23T13:22:38.891Z,6.57
2017-08-23T13:25:06.375Z,8.53
2017-08-23T13:27:33.860Z,6.87
2017-08-23T13:30:01.387Z,7.40
2017-08-23T13:32:29.007Z,11.50
2017-08-23T13:34:56.477Z,4.80
2017-08-23T13:37:23.949Z,4.63
2017-08-23T13:39:51.574Z,8.20
2017-08-23T13:42:19.037Z,6.27
2017-08-23T13:44:46.511Z,12.70
2017-08-23T13:47:13.998Z,5.80
2017-08-23T13:49:41.561Z,7.13
2017-08-23T13:52:09.173Z,9.27
2017-08-23T13:54:36.644Z,9.30
2017-08-23T13:57:04.113Z,7.10
2017-08-23T13:59:31.592Z,7.00
2017-08-23T14:01:59.073Z,10.37
2017-08-23T14:04:26.550Z,11.10
2017-08-23T14:06:54.013Z,5.10
2017-08-23T14:09:21.546Z,10.23
2017-08-23T14:11:49.033Z,7.00
2017-08-23T14:14:16.518Z,10.40
2017-08-23T14:16:44.061Z,6.07
2017-08-23T14:19:11.659Z,6.80
2017-08-23T14:21:39.165Z,8.83
2017-08-23T14:24:06.642Z,6.63
2017-08-23T14:26:34.129Z,7.00
2017-08-23T14:29:01.601Z,4.10
2017-08-23T14:31:29.069Z,8.90
2017-08-23T14:33:56.621Z,8.73
2017-08-23T14:36:24.225Z,5.17
2017-08-23T14:38:51.690Z,5.50
2017-08-23T14:41:19.175Z,5.30
2017-08-23T14:43:46.705Z,8.63
2017-08-23T14:46:14.160Z,6.63
2017-08-23T14:48:41.647Z,7.70
2017-08-23T14:51:09.129Z,3.83
2017-08-23T14:53:36.630Z,4.83
2017-08-23T14:56:04.113Z,6.93
2017-08-23T14:58:31.597Z,4.63
2017-08-23T15:00:59.162Z,6.00
2017-08-23T15:03:26.644Z,7.07
2017-08-23T15:05:54.158Z,5.37
2017-08-23T15:08:21.670Z,17.73
2017-08-23T15:10:49.142Z,14.87
2017-08-23T15:13:16.636Z,5.30
2017-08-23T15:15:44.238Z,8.63
2017-08-23T15:18:11.727Z,7.97
2017-08-23T15:20:39.204Z,4.40
2017-08-23T15:23:06.681Z,7.20
2017-08-23T15:25:34.205Z,5.90
2017-08-23T15:28:01.688Z,4.67
2017-08-23T15:30:29.326Z,6.60
2017-08-23T15:32:56.813Z,3.97
2017-08-23T15:35:24.461Z,11.00
2017-08-23T15:37:51.941Z,12.03
2017-08-23T15:40:19.520Z,9.50
2017-08-23T15:42:47.024Z,7.90
2017-08-23T15:45:14.496Z,6.33
2017-08-23T15:47:41.970Z,8.20
2017-08-23T15:50:09.422Z,13.07
2017-08-23T15:52:36.897Z,4.20
2017-08-23T15:55:04.560Z,10.53
2017-08-23T15:57:32.050Z,10.53
2017-08-23T15:59:59.515Z,9.90
2017-08-23T16:02:27.005Z,21.10
2017-08-23T16:04:54.480Z,7.80
2017-08-23T16:07:21.943Z,18.87
2017-08-23T16:09:49.429Z,17.90
2017-08-23T16:12:17.376Z,17.80
2017-08-23T16:14:44.929Z,9.17
2017-08-23T16:17:12.398Z,11.33
2017-08-23T16:19:39.887Z,6.00
2017-08-23T16:22:07.409Z,8.30
2017-08-23T16:24:34.872Z,6.37
2017-08-23T16:27:02.379Z,9.10
2017-08-23T16:29:30.052Z,8.20
2017-08-23T16:31:57.536Z,7.50
2017-08-23T16:34:25.010Z,6.60
2017-08-23T16:36:53.108Z,6.87
2017-08-23T16:39:20.583Z,11.47
2017-08-23T16:41:48.037Z,5.50
2017-08-23T16:44:15.510Z,4.47
2017-08-23T16:46:43.049Z,13.90
2017-08-23T16:49:10.669Z,5.30
2017-08-23T16:51:38.149Z,10.40
2017-08-23T16:54:05.749Z,9.90
2017-08-23T16:56:33.216Z,8.57
2017-08-23T16:59:00.686Z,10.17
2017-08-23T17:01:28.161Z,8.73
2017-08-23T17:03:55.671Z,7.90
2017-08-23T17:06:23.146Z,9.43
2017-08-23T17:08:50.624Z,7.00
2017-08-23T17:11:18.104Z,7.40
2017-08-23T17:13:45.601Z,9.90
2017-08-23T17:16:13.261Z,9.73
2017-08-23T17:18:40.737Z,16.43
2017-08-23T17:21:08.193Z,8.33
2017-08-23T17:23:35.661Z,10.27
2017-08-23T17:26:03.318Z,6.67
2017-08-23T17:28:30.780Z,9.40
2017-08-23T17:30:58.241Z,8.53
2017-08-23T17:33:25.708Z,9.00
2017-08-23T17:35:53.183Z,5.43
2017-08-23T17:38:20.657Z,9.50
2017-08-23T17:40:48.254Z,5.30
2017-08-23T17:43:15.863Z,5.37
2017-08-23T17:45:43.389Z,5.37
2017-08-23T17:48:10.893Z,5.83
2017-08-23T17:50:38.337Z,7.97
2017-08-23T17:53:05.819Z,4.63
2017-08-23T17:55:33.491Z,10.13
2017-08-23T17:58:00.974Z,7.03
2017-08-23T18:00:28.438Z,9.10
2017-08-23T18:02:55.923Z,5.20
2017-08-23T18:05:23.545Z,5.63
2017-08-23T18:07:51.020Z,8.17
2017-08-23T18:10:18.493Z,6.03
2017-08-23T18:12:45.963Z,5.63
2017-08-23T18:15:13.607Z,6.50
2017-08-23T18:17:41.074Z,4.27
2017-08-23T18:20:08.550Z,9.47
2017-08-23T18:22:36.009Z,5.83
2017-08-23T18:25:03.688Z,9.30
2017-08-23T18:27:31.151Z,6.77
2017-08-23T18:29:58.634Z,10.50
2017-08-23T18:32:26.090Z,14.03
2017-08-23T18:34:53.589Z,8.60
2017-08-23T18:37:21.066Z,7.80
2017-08-23T18:39:48.525Z,4.93
2017-08-23T18:42:16.104Z,15.13
2017-08-23T18:44:43.609Z,7.50
2017-08-23T18:47:11.080Z,9.50
2017-08-23T18:49:38.551Z,11.30
2017-08-23T18:52:06.087Z,6.70
2017-08-23T18:54:33.547Z,10.13
2017-08-23T18:57:01.088Z,5.90
2017-08-23T18:59:28.627Z,10.53
2017-08-23T19:01:56.229Z,8.50
2017-08-23T19:04:23.741Z,10.13
2017-08-23T19:06:51.221Z,5.70
2017-08-23T19:09:18.702Z,8.67
2017-08-23T19:11:46.175Z,11.10
2017-08-23T19:14:13.800Z,11.50
2017-08-23T19:16:41.301Z,10.27
2017-08-23T19:19:08.763Z,5.63
2017-08-23T19:21:36.236Z,7.70
2017-08-23T19:24:03.730Z,12.00
2017-08-23T19:26:31.266Z,6.10
2017-08-23T19:28:58.745Z,8.50
2017-08-23T19:31:26.231Z,10.73
2017-08-23T19:33:53.707Z,12.30
2017-08-23T19:36:21.429Z,5.93
2017-08-23T19:38:48.959Z,8.77
2017-08-23T19:41:16.449Z,8.03
2017-08-23T19:43:43.954Z,14.33
2017-08-23T19:46:11.460Z,8.37
2017-08-23T19:48:38.965Z,8.20
2017-08-23T19:51:06.425Z,4.90
2017-08-23T19:53:34.891Z,7.70
2017-08-23T19:56:02.360Z,10.50
2017-08-23T19:58:29.848Z,6.13
2017-08-23T20:00:57.318Z,9.97
2017-08-23T20:03:24.823Z,11.00
2017-08-23T20:05:52.330Z,6.90
2017-08-23T20:08:19.938Z,6.40
2017-08-23T20:10:47.422Z,9.53
2017-08-23T20:13:15.116Z,10.00
2017-08-23T20:15:42.596Z,7.10
2017-08-23T20:18:10.092Z,7.07
2017-08-23T20:20:37.599Z,7.00
2017-08-23T20:23:05.075Z,12.60
2017-08-23T20:25:32.558Z,10.00
2017-08-23T20:28:00.060Z,8.27
2017-08-23T20:30:27.544Z,11.37
2017-08-23T20:32:55.762Z,11.60
2017-08-23T20:35:23.266Z,9.77
2017-08-23T20:37:50.765Z,8.70
2017-08-23T20:40:18.259Z,12.93
2017-08-23T20:42:45.753Z,5.60
2017-08-23T20:45:13.239Z,7.43
2017-08-23T20:47:40.721Z,10.10
2017-08-23T20:50:08.218Z,8.60
2017-08-23T20:52:35.718Z,7.73
2017-08-23T20:55:03.213Z,17.50
2017-08-23T20:57:30.693Z,7.57
2017-08-23T20:59:58.159Z,7.80
2017-08-23T21:02:26.089Z,9.43
2017-08-23T21:04:53.571Z,10.73
2017-08-23T21:07:21.402Z,13.73
2017-08-23T21:09:49.025Z,11.67
2017-08-23T21:12:17.646Z,12.97
2017-08-23T21:14:46.743Z,10.53
2017-08-23T21:17:14.371Z,9.23
2017-08-23T21:19:42.698Z,9.80
2017-08-23T21:22:10.253Z,10.77
2017-08-23T21:24:37.953Z,11.00
2017-08-23T21:27:05.440Z,20.10
2017-08-23T21:29:32.942Z,7.33
2017-08-23T21:32:05.620Z,8.73
2017-08-23T21:34:33.102Z,11.50
2017-08-23T21:37:00.572Z,11.20
2017-08-23T21:39:28.066Z,13.00
2017-08-23T21:41:55.654Z,12.03
2017-08-23T21:44:23.142Z,17.47
2017-08-23T21:46:50.623Z,14.90
2017-08-23T21:49:18.100Z,9.47
2017-08-23T21:51:45.781Z,10.47
2017-08-23T21:54:13.341Z,12.30
2017-08-23T21:56:40.823Z,14.40
2017-08-23T21:59:08.291Z,14.63
2017-08-23T22:01:35.938Z,9.30
2017-08-23T22:04:03.406Z,12.87
2017-08-23T22:06:31.429Z,11.37
2017-08-23T22:08:58.910Z,8.87
2017-08-23T22:11:26.454Z,12.00
2017-08-23T22:13:53.999Z,11.23
2017-08-23T22:16:21.461Z,12.77
2017-08-23T22:18:48.941Z,8.50
2017-08-23T22:21:16.501Z,13.57
2017-08-23T22:23:43.981Z,10.80
2017-08-23T22:26:12.240Z,8.43
2017-08-23T22:28:39.748Z,12.70
2017-08-23T22:31:07.238Z,13.33
2017-08-23T22:33:34.730Z,12.23
2017-08-23T22:36:02.217Z,10.97
2017-08-23T22:38:29.713Z,11.87
2017-08-23T22:40:57.218Z,14.27
2017-08-23T22:43:24.703Z,12.60
2017-08-23T22:45:52.181Z,15.80
2017-08-23T22:48:19.826Z,18.50
2017-08-23T22:50:47.318Z,17.43
2017-08-23T22:53:14.801Z,20.27
2017-08-23T22:55:42.287Z,25.20
2017-08-23T22:58:09.789Z,18.87
2017-08-23T23:00:37.273Z,21.63
2017-08-23T23:03:05.050Z,26.20
2017-08-23T23:05:32.546Z,26.03
2017-08-23T23:08:00.054Z,19.53
2017-08-23T23:10:27.548Z,24.03
2017-08-23T23:12:55.040Z,19.90
2017-08-23T23:15:22.647Z,21.20
2017-08-23T23:17:50.128Z,29.40
2017-08-23T23:20:17.622Z,17.03
2017-08-23T23:22:45.144Z,18.93
2017-08-23T23:25:12.642Z,28.73
2017-08-23T23:27:40.120Z,22.50
2017-08-23T23:30:07.597Z,21.37
2017-08-23T23:32:35.098Z,25.53
2017-08-23T23:35:02.585Z,23.90
2017-08-23T23:37:30.093Z,28.93
2017-08-23T23:39:57.575Z,30.53
2017-08-23T23:42:25.054Z,26.43
2017-08-23T23:44:52.545Z,24.93
2017-08-23T23:47:20.043Z,23.57
2017-08-23T23:49:47.548Z,26.23
2017-08-23T23:52:15.027Z,28.90
2017-08-23T23:54:42.499Z,34.57
2017-08-23T23:57:09.991Z,32.70
2017-08-23T23:59:37.461Z,30.87
